createdAt,value
2017-09-22T00:00:03.186Z,9.1
2017-09-22T00:15:03.059Z,9.1
2017-09-22T00:30:03.030Z,9.1
2017-09-22T00:45:02.862Z,9.1
2017-09-22T01:00:03.922Z,9.1
2017-09-22T01:15:02.734Z,9.1
2017-09-22T01:30:03.498Z,9.1
2017-09-22T01:45:03.255Z,9
2017-09-22T02:00:03.091Z,9
2017-09-22T02:15:02.815Z,9
2017-09-22T02:30:03.662Z,9
2017-09-22T02:45:03.400Z,9
2017-09-22T03:00:03.141Z,9
2017-09-22T03:15:02.882Z,8.9
2017-09-22T03:30:02.620Z,8.9
2017-09-22T03:45:03.517Z,8.9
2017-09-22T04:00:03.794Z,8.9
2017-09-22T04:15:03.369Z,8.9
2017-09-22T04:30:03.257Z,8.9
2017-09-22T04:45:02.899Z,8.9
2017-09-22T05:00:03.796Z,8.9
2017-09-22T05:15:03.633Z,8.9
2017-09-22T05:30:03.672Z,8.9
2017-09-22T05:45:03.325Z,8.9
2017-09-22T06:00:03.064Z,9
2017-09-22T06:15:03.057Z,9
2017-09-22T06:30:03.289Z,9
2017-09-22T06:45:03.084Z,9
2017-09-22T07:00:08.954Z,9
2017-09-22T07:15:04.471Z,9
2017-09-22T07:30:04.077Z,9.1
2017-09-22T07:45:03.609Z,9.1
2017-09-22T08:00:03.944Z,9.1
2017-09-22T08:15:02.742Z,9.1
2017-09-22T08:30:03.622Z,9.1
2017-09-22T08:45:06.308Z,9.2
2017-09-22T09:00:06.201Z,9.2
2017-09-22T09:15:03.017Z,9.2
2017-09-22T09:30:08.841Z,9.2
2017-09-22T09:45:04.057Z,9.3
2017-09-22T10:00:03.858Z,9.4
2017-09-22T10:15:04.673Z,9.4
2017-09-22T10:30:03.576Z,9.4
2017-09-22T10:45:03.337Z,9.5
2017-09-22T11:00:03.014Z,9.6
2017-09-22T11:15:02.623Z,9.6
2017-09-22T11:30:03.460Z,9.6
2017-09-22T11:45:03.466Z,9.7
2017-09-22T12:00:03.223Z,9.7
2017-09-22T12:15:02.954Z,9.8
2017-09-22T12:30:02.758Z,9.8
2017-09-22T12:45:03.531Z,9.8
2017-09-22T13:00:03.328Z,9.9
2017-09-22T13:15:03.117Z,9.9
2017-09-22T13:30:03.019Z,9.9
2017-09-22T13:45:02.743Z,10
2017-09-22T14:00:03.498Z,10.1
2017-09-22T14:15:03.465Z,10.1
2017-09-22T14:30:03.407Z,10.1
2017-09-22T14:45:03.681Z,10.1
2017-09-22T15:00:03.588Z,10.1
2017-09-22T15:15:03.545Z,10.2
2017-09-22T15:30:03.634Z,10.2
2017-09-22T15:45:03.618Z,10.2
2017-09-22T16:00:03.421Z,10.2
2017-09-22T16:15:03.304Z,10.2
2017-09-22T16:30:03.130Z,10.2
2017-09-22T16:45:02.818Z,10.2
2017-09-22T17:00:03.610Z,10.2
2017-09-22T17:15:03.368Z,10.2
2017-09-22T17:30:03.130Z,10.2
2017-09-22T17:45:02.718Z,10.2
2017-09-22T18:00:03.537Z,10.2
2017-09-22T18:15:03.280Z,10.2
2017-09-22T18:30:02.994Z,10.2
2017-09-22T18:45:02.689Z,10.2
2017-09-22T19:00:03.429Z,10.1
2017-09-22T19:15:03.064Z,10.1
2017-09-22T19:30:03.180Z,10.1
2017-09-22T19:45:02.979Z,10.1
2017-09-22T20:00:02.670Z,10.1
2017-09-22T20:15:03.423Z,10
2017-09-22T20:30:03.184Z,10
2017-09-22T20:45:02.884Z,9.9
2017-09-22T21:00:03.650Z,9.9
2017-09-22T21:15:03.672Z,9.9
2017-09-22T21:30:03.497Z,9.9
2017-09-22T21:45:03.531Z,9.8
2017-09-22T22:00:03.243Z,9.8
2017-09-22T22:15:03.462Z,9.8
2017-09-22T22:30:03.319Z,9.8
2017-09-22T22:45:02.999Z,9.7
2017-09-22T23:00:02.707Z,9.6
2017-09-22T23:15:03.392Z,9.6
2017-09-22T23:30:03.105Z,9.6
2017-09-22T23:45:02.857Z,9.6
